createdAt,value
2022-10-18T00:02:03.345Z,6.95
2022-10-18T00:04:29.802Z,7.78
2022-10-18T00:06:56.343Z,7.80
2022-10-18T00:09:22.747Z,8.27
2022-10-18T00:11:49.334Z,11.50
2022-10-18T00:14:15.877Z,6.82
2022-10-18T00:16:42.246Z,10.52
2022-10-18T00:19:08.661Z,11.95
2022-10-18T00:21:35.195Z,12.98
2022-10-18T00:24:01.744Z,9.48
2022-10-18T00:26:29.694Z,10.45
2022-10-18T00:29:02.441Z,17.65
2022-10-18T00:31:30.773Z,9.68
2022-10-18T00:33:59.807Z,11.27
2022-10-18T00:36:28.712Z,10.07
2022-10-18T00:38:55.253Z,10.35
2022-10-18T00:41:24.968Z,9.63
2022-10-18T00:43:55.041Z,10.38
2022-10-18T00:46:21.943Z,17.13
2022-10-18T00:48:48.923Z,9.57
2022-10-18T00:51:18.907Z,13.05
2022-10-18T00:53:45.746Z,13.00
2022-10-18T00:56:13.208Z,12.52
2022-10-18T00:58:40.079Z,9.93
2022-10-18T01:01:06.432Z,11.35
2022-10-18T01:03:33.152Z,11.70
2022-10-18T01:05:59.567Z,9.65
2022-10-18T01:08:45.903Z,9.00
2022-10-18T01:11:24.172Z,10.48
2022-10-18T01:13:53.471Z,9.40
2022-10-18T01:16:29.284Z,10.57
2022-10-18T01:18:58.659Z,10.80
2022-10-18T01:21:46.287Z,12.02
2022-10-18T01:24:25.621Z,9.20
2022-10-18T01:27:06.939Z,8.52
2022-10-18T01:32:04.064Z,7.85
2022-10-18T01:34:35.656Z,17.23
2022-10-18T01:37:05.164Z,10.35
2022-10-18T01:39:36.346Z,11.90
2022-10-18T01:42:06.078Z,13.82
2022-10-18T01:44:34.858Z,9.73
2022-10-18T01:47:01.272Z,11.88
2022-10-18T01:49:27.621Z,10.93
2022-10-18T01:51:54.062Z,8.27
2022-10-18T01:54:28.723Z,7.68
2022-10-18T01:57:04.562Z,8.45
2022-10-18T01:59:53.791Z,7.05
2022-10-18T02:02:54.273Z,10.55
2022-10-18T02:05:44.598Z,12.30
2022-10-18T02:08:36.576Z,9.43
2022-10-18T02:11:05.673Z,9.05
2022-10-18T02:13:47.784Z,8.77
2022-10-18T02:16:18.989Z,8.38
2022-10-18T02:21:19.469Z,7.70
2022-10-18T02:23:47.060Z,13.30
2022-10-18T02:26:15.032Z,14.90
2022-10-18T02:28:41.916Z,13.43
2022-10-18T02:31:32.773Z,8.48
2022-10-18T02:34:06.894Z,14.52
2022-10-18T02:36:37.800Z,7.82
2022-10-18T02:39:11.328Z,8.10
2022-10-18T02:41:38.000Z,9.30
2022-10-18T02:44:04.555Z,9.13
2022-10-18T02:46:30.952Z,9.15
2022-10-18T02:48:57.379Z,12.23
2022-10-18T02:51:23.789Z,12.43
2022-10-18T02:53:50.190Z,10.82
2022-10-18T02:56:16.686Z,10.43
2022-10-18T02:58:43.080Z,6.63
2022-10-18T03:01:09.525Z,11.45
2022-10-18T03:03:36.072Z,10.13
2022-10-18T03:06:02.447Z,10.10
2022-10-18T03:08:29.798Z,17.75
2022-10-18T03:10:56.204Z,8.68
2022-10-18T03:13:22.663Z,10.32
2022-10-18T03:15:49.129Z,10.32
2022-10-18T03:18:15.652Z,12.60
2022-10-18T03:20:42.566Z,13.07
2022-10-18T03:23:09.251Z,12.30
2022-10-18T03:25:35.693Z,16.10
2022-10-18T03:28:02.105Z,18.67
2022-10-18T03:30:28.499Z,20.73
2022-10-18T03:32:54.839Z,22.27
2022-10-18T03:35:21.405Z,21.23
2022-10-18T03:37:47.945Z,20.48
2022-10-18T03:40:14.441Z,20.02
2022-10-18T03:42:40.784Z,21.05
2022-10-18T03:45:07.714Z,24.95
2022-10-18T03:47:34.204Z,28.83
2022-10-18T03:50:00.575Z,18.75
2022-10-18T03:52:26.980Z,19.73
2022-10-18T03:54:53.453Z,22.85
2022-10-18T03:57:19.887Z,27.42
2022-10-18T03:59:46.264Z,21.48
2022-10-18T04:02:12.611Z,21.85
2022-10-18T04:04:38.985Z,25.77
2022-10-18T04:07:05.378Z,28.85
2022-10-18T04:09:31.872Z,22.25
2022-10-18T04:11:58.324Z,21.05
2022-10-18T04:14:24.758Z,24.63
2022-10-18T04:16:51.119Z,26.10
2022-10-18T04:19:17.492Z,19.83
2022-10-18T04:21:43.941Z,17.25
2022-10-18T04:24:10.365Z,16.27
2022-10-18T04:26:36.953Z,18.60
2022-10-18T04:29:03.625Z,24.85
2022-10-18T04:31:30.057Z,20.15
2022-10-18T04:33:56.428Z,23.38
2022-10-18T04:36:22.768Z,22.60
2022-10-18T04:38:49.135Z,16.80
2022-10-18T04:41:15.628Z,20.17
2022-10-18T04:43:42.068Z,20.33
2022-10-18T04:46:08.540Z,18.02
2022-10-18T04:48:35.029Z,15.85
2022-10-18T04:51:01.513Z,17.48
2022-10-18T04:53:27.861Z,13.43
2022-10-18T04:55:54.301Z,17.27
2022-10-18T04:58:20.676Z,24.88
2022-10-18T05:00:47.759Z,15.05
2022-10-18T05:03:14.927Z,13.98
2022-10-18T05:06:00.954Z,15.50
2022-10-18T05:08:28.221Z,26.38
2022-10-18T05:10:54.672Z,25.95
2022-10-18T05:13:21.119Z,22.70
2022-10-18T05:15:47.681Z,23.73
2022-10-18T05:18:14.078Z,23.77
2022-10-18T05:20:40.497Z,20.08
2022-10-18T05:23:10.620Z,19.80
2022-10-18T05:25:41.229Z,16.23
2022-10-18T05:28:11.126Z,18.40
2022-10-18T05:30:53.797Z,20.15
2022-10-18T05:33:20.216Z,21.92
2022-10-18T05:35:46.592Z,23.27
2022-10-18T05:38:12.986Z,12.60
2022-10-18T05:40:39.605Z,11.20
2022-10-18T05:43:06.014Z,15.43
2022-10-18T05:45:32.381Z,10.13
2022-10-18T05:47:58.786Z,10.13
2022-10-18T05:50:25.150Z,9.25
2022-10-18T05:52:51.512Z,9.80
2022-10-18T05:55:17.880Z,9.45
2022-10-18T05:57:49.442Z,12.10
2022-10-18T06:00:15.917Z,7.40
2022-10-18T06:02:42.463Z,11.80
2022-10-18T06:05:09.110Z,7.38
2022-10-18T06:07:35.620Z,9.85
2022-10-18T06:10:02.043Z,8.65
2022-10-18T06:12:28.418Z,13.20
2022-10-18T06:14:54.821Z,8.50
2022-10-18T06:17:21.253Z,11.57
2022-10-18T06:19:47.708Z,10.82
2022-10-18T06:22:14.092Z,7.03
2022-10-18T06:24:40.460Z,8.20
2022-10-18T06:27:09.246Z,7.57
2022-10-18T06:29:37.000Z,8.90
2022-10-18T06:32:04.139Z,9.50
2022-10-18T06:34:30.962Z,11.57
2022-10-18T06:36:58.852Z,12.32
2022-10-18T06:39:25.963Z,9.23
2022-10-18T06:41:53.094Z,11.77
2022-10-18T06:44:21.022Z,9.77
2022-10-18T06:46:48.795Z,10.05
2022-10-18T06:49:18.958Z,13.38
2022-10-18T06:51:46.134Z,7.85
2022-10-18T06:54:18.031Z,7.28
2022-10-18T06:56:45.338Z,9.25
2022-10-18T06:59:11.774Z,6.53
2022-10-18T07:01:38.310Z,11.70
2022-10-18T07:04:04.857Z,14.00
2022-10-18T07:06:31.367Z,16.45
2022-10-18T07:08:57.778Z,15.00
2022-10-18T07:11:26.507Z,20.05
2022-10-18T07:14:00.730Z,16.05
2022-10-18T07:16:27.133Z,11.35
2022-10-18T07:18:53.538Z,10.32
2022-10-18T07:21:23.618Z,13.23
2022-10-18T07:23:51.135Z,11.00
2022-10-18T07:26:23.481Z,17.15
2022-10-18T07:28:55.704Z,13.75
2022-10-18T07:31:23.086Z,7.68
2022-10-18T07:33:49.543Z,7.55
2022-10-18T07:36:16.117Z,9.10
2022-10-18T07:38:42.708Z,6.95
2022-10-18T07:41:11.722Z,5.07
2022-10-18T07:43:42.067Z,10.90
2022-10-18T07:46:08.572Z,4.40
2022-10-18T07:48:34.964Z,4.93
2022-10-18T07:51:02.044Z,7.07
2022-10-18T07:53:29.277Z,7.93
2022-10-18T07:56:01.378Z,10.18
2022-10-18T07:58:31.648Z,6.72
2022-10-18T08:01:01.572Z,7.78
2022-10-18T08:03:27.984Z,5.00
2022-10-18T08:05:55.278Z,6.93
2022-10-18T08:08:23.168Z,4.13
2022-10-18T08:10:49.567Z,6.63
2022-10-18T08:13:16.154Z,6.55
2022-10-18T08:15:42.772Z,6.68
2022-10-18T08:18:09.383Z,6.78
2022-10-18T08:20:36.917Z,3.75
2022-10-18T08:23:06.202Z,10.75
2022-10-18T08:25:32.859Z,4.60
2022-10-18T08:27:59.370Z,5.30
2022-10-18T08:30:25.825Z,5.57
2022-10-18T08:32:52.781Z,8.75
2022-10-18T08:35:19.215Z,5.97
2022-10-18T08:37:46.139Z,9.30
2022-10-18T08:40:15.866Z,8.15
2022-10-18T08:43:00.587Z,6.05
2022-10-18T08:45:41.812Z,4.05
2022-10-18T08:48:21.635Z,7.95
2022-10-18T08:50:49.770Z,8.20
2022-10-18T08:53:45.302Z,4.18
2022-10-18T08:56:15.980Z,5.15
2022-10-18T08:58:46.302Z,5.18
2022-10-18T09:01:42.065Z,3.83
2022-10-18T09:04:48.876Z,7.22
2022-10-18T09:07:15.292Z,6.13
2022-10-18T09:10:02.773Z,6.60
2022-10-18T09:12:55.611Z,3.63
2022-10-18T09:15:51.689Z,6.00
2022-10-18T09:18:24.068Z,5.03
2022-10-18T09:21:00.636Z,6.93
2022-10-18T09:23:47.979Z,5.03
2022-10-18T09:26:18.388Z,7.53
2022-10-18T09:29:23.412Z,5.55
2022-10-18T09:32:04.612Z,5.75
2022-10-18T09:34:44.779Z,5.13
2022-10-18T09:37:17.716Z,7.63
2022-10-18T09:39:45.913Z,4.65
2022-10-18T09:42:28.984Z,5.93
2022-10-18T09:45:26.785Z,7.57
2022-10-18T09:48:13.241Z,13.27
2022-10-18T09:50:44.813Z,8.35
2022-10-18T09:53:25.841Z,6.68
2022-10-18T09:58:20.440Z,7.05
2022-10-18T10:00:50.860Z,6.78
2022-10-18T10:03:17.290Z,8.90
2022-10-18T10:05:44.506Z,5.78
2022-10-18T10:08:11.581Z,7.07
2022-10-18T10:10:46.891Z,6.68
2022-10-18T10:13:22.766Z,8.32
2022-10-18T10:15:54.301Z,5.78
2022-10-18T10:18:29.798Z,6.32
2022-10-18T10:21:00.196Z,3.78
2022-10-18T10:23:30.656Z,3.47
2022-10-18T10:26:03.834Z,9.18
2022-10-18T10:28:35.064Z,8.52
2022-10-18T10:31:29.446Z,5.28
2022-10-18T10:34:28.858Z,7.20
2022-10-18T10:36:55.384Z,8.38
2022-10-18T10:39:24.422Z,8.48
2022-10-18T10:41:56.612Z,11.27
2022-10-18T10:44:32.086Z,5.10
2022-10-18T10:46:59.297Z,6.07
2022-10-18T10:49:45.247Z,6.32
2022-10-18T10:52:28.524Z,10.93
2022-10-18T10:55:33.703Z,8.45
2022-10-18T10:57:47.444Z,10.98
2022-10-18T11:00:43.617Z,16.10
2022-10-18T11:03:28.113Z,7.45
2022-10-18T11:05:57.599Z,9.95
2022-10-18T11:08:40.952Z,9.88
2022-10-18T11:11:22.222Z,8.43
2022-10-18T11:14:07.278Z,10.23
2022-10-18T11:16:56.931Z,6.47
2022-10-18T11:19:39.056Z,7.32
2022-10-18T11:22:12.273Z,8.07
2022-10-18T11:24:39.476Z,8.90
2022-10-18T11:27:14.913Z,7.18
2022-10-18T11:29:54.283Z,9.73
2022-10-18T11:32:48.396Z,4.82
2022-10-18T11:35:29.452Z,9.05
2022-10-18T11:40:49.641Z,10.55
2022-10-18T11:44:01.724Z,10.52
2022-10-18T11:46:38.422Z,9.43
2022-10-18T11:49:23.206Z,6.43
2022-10-18T11:52:09.171Z,10.05
2022-10-18T11:55:05.131Z,7.60
2022-10-18T11:57:50.600Z,6.78
2022-10-18T12:00:19.865Z,9.13
2022-10-18T12:03:21.022Z,9.18
2022-10-18T12:05:49.966Z,6.57
2022-10-18T12:08:23.330Z,9.23
2022-10-18T12:11:04.441Z,10.13
2022-10-18T12:13:38.945Z,6.93
2022-10-18T12:16:07.892Z,5.35
2022-10-18T12:18:41.712Z,9.98
2022-10-18T12:21:08.227Z,14.73
2022-10-18T12:24:18.266Z,9.85
2022-10-18T12:26:48.513Z,8.80
2022-10-18T12:29:35.207Z,11.48
2022-10-18T12:32:14.481Z,9.77
2022-10-18T12:34:49.110Z,6.38
2022-10-18T12:37:24.685Z,6.95
2022-10-18T12:40:14.539Z,7.82
2022-10-18T12:42:49.302Z,11.63
2022-10-18T12:45:34.910Z,4.07
2022-10-18T12:48:08.269Z,8.55
2022-10-18T12:50:41.198Z,7.20
2022-10-18T12:53:10.366Z,10.32
2022-10-18T12:55:44.985Z,6.88
2022-10-18T12:58:14.133Z,7.60
2022-10-18T13:00:43.488Z,6.60
2022-10-18T13:03:10.072Z,5.82
2022-10-18T13:05:53.268Z,6.35
2022-10-18T13:08:38.082Z,5.25
2022-10-18T13:11:10.652Z,9.00
2022-10-18T13:13:41.662Z,11.02
2022-10-18T13:16:22.983Z,10.82
2022-10-18T13:19:00.367Z,4.43
2022-10-18T13:21:47.240Z,8.25
2022-10-18T13:24:55.223Z,6.03
2022-10-18T13:27:42.625Z,8.18
2022-10-18T13:30:18.391Z,7.38
2022-10-18T13:33:20.128Z,7.55
2022-10-18T13:35:55.507Z,9.02
2022-10-18T13:38:34.055Z,6.47
2022-10-18T13:41:06.899Z,9.48
2022-10-18T13:43:52.643Z,7.60
2022-10-18T13:46:19.737Z,10.27
2022-10-18T13:48:50.239Z,7.05
2022-10-18T13:51:38.323Z,9.40
2022-10-18T13:54:46.625Z,13.15
2022-10-18T13:57:47.297Z,11.18
2022-10-18T14:00:48.899Z,6.45
2022-10-18T14:04:02.223Z,7.45
2022-10-18T14:06:36.090Z,9.70
2022-10-18T14:09:25.530Z,6.43
2022-10-18T14:12:28.378Z,6.80
2022-10-18T14:15:18.151Z,5.38
2022-10-18T14:17:49.086Z,8.23
2022-10-18T14:23:11.037Z,9.10
2022-10-18T14:25:38.561Z,9.75
2022-10-18T14:28:21.636Z,7.18
2022-10-18T14:30:56.277Z,7.55
2022-10-18T14:33:26.545Z,8.45
2022-10-18T14:36:19.208Z,8.68
2022-10-18T14:38:54.379Z,9.18
2022-10-18T14:41:34.884Z,6.65
2022-10-18T14:44:18.380Z,8.15
2022-10-18T14:46:58.129Z,5.65
2022-10-18T14:49:24.603Z,6.82
2022-10-18T14:51:58.280Z,6.68
2022-10-18T14:54:31.951Z,6.40
2022-10-18T14:57:00.853Z,6.78
2022-10-18T14:59:30.652Z,7.00
2022-10-18T15:02:01.116Z,8.65
2022-10-18T15:04:32.818Z,9.35
2022-10-18T15:07:01.371Z,9.80
2022-10-18T15:12:02.048Z,7.78
2022-10-18T15:14:30.173Z,13.00
2022-10-18T15:17:03.017Z,9.93
2022-10-18T15:19:35.434Z,10.00
2022-10-18T15:25:20.943Z,9.97
2022-10-18T15:27:53.272Z,6.28
2022-10-18T15:30:24.807Z,10.95
2022-10-18T15:32:57.478Z,11.57
2022-10-18T15:35:35.530Z,11.50
2022-10-18T15:38:17.290Z,8.07
2022-10-18T15:40:44.106Z,7.03
2022-10-18T15:43:22.645Z,7.47
2022-10-18T15:45:51.298Z,8.98
2022-10-18T15:48:25.076Z,7.22
2022-10-18T15:50:56.544Z,6.45
2022-10-18T15:53:23.557Z,8.23
2022-10-18T15:55:52.482Z,5.60
2022-10-18T15:58:23.220Z,7.97
2022-10-18T16:00:50.733Z,11.18
2022-10-18T16:03:19.266Z,10.07
2022-10-18T16:05:45.786Z,8.60
2022-10-18T16:08:23.446Z,7.40
2022-10-18T16:10:50.125Z,4.78
2022-10-18T16:13:17.500Z,6.93
2022-10-18T16:15:44.003Z,6.05
2022-10-18T16:18:17.016Z,5.22
2022-10-18T16:20:44.301Z,8.80
2022-10-18T16:23:29.304Z,8.13
2022-10-18T16:25:57.240Z,5.75
2022-10-18T16:28:25.699Z,6.55
2022-10-18T16:31:00.925Z,7.90
2022-10-18T16:33:27.365Z,9.82
2022-10-18T16:35:54.173Z,6.75
2022-10-18T16:38:35.481Z,14.38
2022-10-18T16:41:04.063Z,8.63
2022-10-18T16:43:31.367Z,9.65
2022-10-18T16:45:57.970Z,7.82
2022-10-18T16:48:25.348Z,7.22
2022-10-18T16:50:54.829Z,9.63
2022-10-18T16:53:25.058Z,15.45
2022-10-18T16:55:57.101Z,28.50
2022-10-18T17:00:56.144Z,23.05
2022-10-18T17:03:22.946Z,22.65
2022-10-18T17:05:49.388Z,11.00
2022-10-18T17:08:24.053Z,17.58
2022-10-18T17:10:54.857Z,11.70
2022-10-18T17:13:22.562Z,12.50
2022-10-18T17:15:50.362Z,5.97
2022-10-18T17:18:23.403Z,8.38
2022-10-18T17:20:50.221Z,8.57
2022-10-18T17:23:16.694Z,7.15
2022-10-18T17:25:58.948Z,7.60
2022-10-18T17:28:33.661Z,8.57
2022-10-18T17:31:00.096Z,9.13
2022-10-18T17:33:26.591Z,7.55
2022-10-18T17:35:53.007Z,8.00
2022-10-18T17:38:19.371Z,8.70
2022-10-18T17:40:46.272Z,14.10
2022-10-18T17:43:13.612Z,9.70
2022-10-18T17:45:51.004Z,11.70
2022-10-18T17:48:17.640Z,11.13
2022-10-18T17:50:43.989Z,11.20
2022-10-18T17:53:12.845Z,12.85
2022-10-18T17:55:39.702Z,19.85
2022-10-18T17:58:06.202Z,13.95
2022-10-18T18:00:32.757Z,14.60
2022-10-18T18:03:00.241Z,19.42
2022-10-18T18:05:31.374Z,14.65
2022-10-18T18:10:32.871Z,27.05
2022-10-18T18:12:59.241Z,24.50
2022-10-18T18:15:25.804Z,13.23
2022-10-18T18:17:57.056Z,11.20
2022-10-18T18:20:24.341Z,21.95
2022-10-18T18:22:51.794Z,20.70
2022-10-18T18:25:18.422Z,15.10
2022-10-18T18:27:44.789Z,11.55
2022-10-18T18:30:11.447Z,13.05
2022-10-18T18:32:39.523Z,18.15
2022-10-18T18:35:06.153Z,12.18
2022-10-18T18:37:32.682Z,10.38
2022-10-18T18:39:59.047Z,10.85
2022-10-18T18:42:25.435Z,11.48
2022-10-18T18:44:51.778Z,9.43
2022-10-18T18:47:21.216Z,11.45
2022-10-18T18:49:47.638Z,13.77
2022-10-18T18:52:14.008Z,12.40
2022-10-18T18:54:40.404Z,12.73
2022-10-18T18:57:06.772Z,13.13
2022-10-18T18:59:33.236Z,12.77
2022-10-18T19:01:59.966Z,24.95
2022-10-18T19:04:26.428Z,14.40
2022-10-18T19:06:52.891Z,13.45
2022-10-18T19:09:21.769Z,11.75
2022-10-18T19:11:52.741Z,10.88
2022-10-18T19:16:54.268Z,15.15
2022-10-18T19:19:23.420Z,9.77
2022-10-18T19:21:52.213Z,11.00
2022-10-18T19:24:19.876Z,10.30
2022-10-18T19:26:50.416Z,11.05
2022-10-18T19:29:30.636Z,10.82
2022-10-18T19:31:59.720Z,17.42
2022-10-18T19:34:28.531Z,10.00
2022-10-18T19:36:55.481Z,12.65
2022-10-18T19:39:30.319Z,13.38
2022-10-18T19:41:58.829Z,12.05
2022-10-18T19:44:28.798Z,9.48
2022-10-18T19:46:55.464Z,12.93
2022-10-18T19:49:21.972Z,9.95
2022-10-18T19:51:48.463Z,11.00
2022-10-18T19:54:15.990Z,17.08
2022-10-18T19:56:43.029Z,11.15
2022-10-18T19:59:11.042Z,11.35
2022-10-18T20:01:37.591Z,12.68
2022-10-18T20:04:04.829Z,11.63
2022-10-18T20:06:31.865Z,15.80
2022-10-18T20:08:58.430Z,13.77
2022-10-18T20:11:27.125Z,14.48
2022-10-18T20:13:54.143Z,16.45
2022-10-18T20:16:27.833Z,15.43
2022-10-18T20:18:59.602Z,15.20
2022-10-18T20:21:27.337Z,15.50
2022-10-18T20:23:54.398Z,13.88
2022-10-18T20:26:21.628Z,18.35
2022-10-18T20:28:55.821Z,15.68
2022-10-18T20:31:35.422Z,15.73
2022-10-18T20:34:04.704Z,13.68
2022-10-18T20:36:32.557Z,18.05
2022-10-18T20:38:59.645Z,15.48
2022-10-18T20:41:35.950Z,19.50
2022-10-18T20:44:05.203Z,15.32
2022-10-18T20:46:34.057Z,13.90
2022-10-18T20:49:01.078Z,14.70
2022-10-18T20:51:27.840Z,13.70
2022-10-18T20:53:54.636Z,12.50
2022-10-18T20:56:23.950Z,16.35
2022-10-18T20:58:52.008Z,13.82
2022-10-18T21:01:24.082Z,13.23
2022-10-18T21:03:52.253Z,12.65
2022-10-18T21:06:28.189Z,14.32
2022-10-18T21:09:05.560Z,11.68
2022-10-18T21:11:36.355Z,13.13
2022-10-18T21:14:06.937Z,15.07
2022-10-18T21:16:35.654Z,13.52
2022-10-18T21:19:06.367Z,13.35
2022-10-18T21:21:33.051Z,14.23
2022-10-18T21:24:02.501Z,15.57
2022-10-18T21:26:32.014Z,11.45
2022-10-18T21:28:59.124Z,12.75
2022-10-18T21:31:28.394Z,14.48
2022-10-18T21:33:57.323Z,13.70
2022-10-18T21:36:24.644Z,19.40
2022-10-18T21:38:52.085Z,15.52
2022-10-18T21:41:20.928Z,15.82
2022-10-18T21:43:49.746Z,12.95
2022-10-18T21:46:18.497Z,15.50
2022-10-18T21:48:49.980Z,14.15
2022-10-18T21:51:18.684Z,13.77
2022-10-18T21:53:46.902Z,14.73
2022-10-18T21:56:15.838Z,14.70
2022-10-18T21:58:43.010Z,17.92
2022-10-18T22:01:15.021Z,15.27
2022-10-18T22:03:42.264Z,14.30
2022-10-18T22:06:14.030Z,16.83
2022-10-18T22:08:42.635Z,16.23
2022-10-18T22:11:09.809Z,14.68
2022-10-18T22:13:36.250Z,16.85
2022-10-18T22:16:04.353Z,14.13
2022-10-18T22:18:32.175Z,16.98
2022-10-18T22:21:01.463Z,17.45
2022-10-18T22:23:32.943Z,16.40
2022-10-18T22:26:08.948Z,17.48
2022-10-18T22:28:36.053Z,24.73
2022-10-18T22:31:02.798Z,16.48
2022-10-18T22:33:29.668Z,13.52
2022-10-18T22:35:56.215Z,19.50
2022-10-18T22:38:22.795Z,16.73
2022-10-18T22:40:49.240Z,17.98
2022-10-18T22:43:15.585Z,13.95
2022-10-18T22:45:42.102Z,15.45
2022-10-18T22:48:08.458Z,14.80
2022-10-18T22:50:34.833Z,14.95
2022-10-18T22:53:01.199Z,16.58
2022-10-18T22:55:27.552Z,19.75
2022-10-18T22:57:55.453Z,14.40
2022-10-18T23:00:21.852Z,14.10
2022-10-18T23:02:51.491Z,12.60
2022-10-18T23:05:17.974Z,11.35
2022-10-18T23:07:49.078Z,11.85
2022-10-18T23:10:15.789Z,10.68
2022-10-18T23:12:42.370Z,8.13
2022-10-18T23:15:09.274Z,12.15
2022-10-18T23:17:36.129Z,9.57
2022-10-18T23:20:03.251Z,11.35
2022-10-18T23:22:29.657Z,11.30
2022-10-18T23:24:56.038Z,9.07
2022-10-18T23:27:22.446Z,10.30
2022-10-18T23:29:48.805Z,11.90
2022-10-18T23:32:15.157Z,13.27
2022-10-18T23:34:41.501Z,13.45
2022-10-18T23:37:07.885Z,13.35
2022-10-18T23:39:34.255Z,9.63
2022-10-18T23:42:00.673Z,10.20
2022-10-18T23:44:27.029Z,17.75
2022-10-18T23:46:53.402Z,12.27
2022-10-18T23:49:19.781Z,9.95
2022-10-18T23:51:46.170Z,8.02
2022-10-18T23:54:12.646Z,9.85
2022-10-18T23:56:38.997Z,11.10
2022-10-18T23:59:05.337Z,12.48
